Time;durP1;ratioP1;P1;durP2;ratioP2;P2;SDS_P1;SDS_P2;PMS_P1;PMS_P2;Temp;Humidity;BMP_temperature;BMP_pressure;BME280_temperature;BME280_humidity;BME280_pressure;Samples;Min_cycle;Max_cycle;Signal;HPM_P1;HPM_P2
2023/01/15 00:01:42;;;;;;;0.43;0.40;;;8.20;99.90;;;;;;5074237;28;20162;-45
2023/01/15 00:04:11;;;;;;;0.40;0.25;;;8.10;99.90;;;;;;5073271;28;20237;-45
2023/01/15 00:06:39;;;;;;;1.08;0.65;;;8.10;99.90;;;;;;5073419;28;20191;-45
2023/01/15 00:09:06;;;;;;;2.60;0.70;;;7.90;99.90;;;;;;5073670;28;20166;-45
2023/01/15 00:11:31;;;;;;;0.47;0.47;;;7.80;99.90;;;;;;5073508;28;20174;-45
2023/01/15 00:13:57;;;;;;;4.07;0.68;;;7.70;99.90;;;;;;5073250;28;20174;-45
2023/01/15 00:16:24;;;;;;;1.05;0.70;;;7.60;99.90;;;;;;5073322;28;20193;-45
2023/01/15 00:18:55;;;;;;;1.25;0.65;;;7.50;99.90;;;;;;5073103;28;20540;-45
2023/01/15 00:21:22;;;;;;;2.30;1.02;;;7.50;99.90;;;;;;5072450;28;20630;-45
2023/01/15 00:29:18;;;;;;;1.13;0.45;;;7.40;99.90;;;;;;5072508;28;20218;-45
2023/01/15 00:31:53;;;;;;;1.30;0.70;;;7.40;99.90;;;;;;5072962;28;20641;-45
2023/01/15 00:34:19;;;;;;;1.33;0.68;;;7.40;99.90;;;;;;5073036;28;20180;-45
2023/01/15 00:36:44;;;;;;;2.90;1.20;;;7.40;99.90;;;;;;5073158;28;20623;-45
2023/01/15 00:39:10;;;;;;;2.67;0.60;;;7.40;99.90;;;;;;5072922;28;20245;-45
2023/01/15 00:41:35;;;;;;;2.05;0.70;;;7.40;99.90;;;;;;5073117;28;20641;-45
2023/01/15 00:44:01;;;;;;;1.67;0.70;;;7.40;99.90;;;;;;5072603;28;20177;-45
2023/01/15 00:46:26;;;;;;;2.13;0.77;;;7.40;99.90;;;;;;5073007;28;20176;-45
2023/01/15 00:48:52;;;;;;;2.08;1.23;;;7.40;99.90;;;;;;5072943;28;20174;-45
2023/01/15 00:51:17;;;;;;;0.90;0.70;;;7.30;99.90;;;;;;5072686;28;20534;-45
2023/01/15 00:53:43;;;;;;;2.13;0.70;;;7.40;99.90;;;;;;5072681;28;20178;-45
2023/01/15 00:56:08;;;;;;;1.63;0.85;;;7.40;99.90;;;;;;5072623;28;20169;-45
2023/01/15 00:58:34;;;;;;;1.77;0.38;;;7.40;99.90;;;;;;5071912;28;20249;-45
2023/01/15 01:00:59;;;;;;;1.75;0.98;;;7.40;99.90;;;;;;5072393;28;20644;-45
2023/01/15 01:03:26;;;;;;;1.27;0.75;;;7.40;99.90;;;;;;5036057;28;1052680;-45
2023/01/15 01:05:51;;;;;;;1.17;0.55;;;7.40;99.90;;;;;;5073569;28;20176;-45
2023/01/15 01:08:17;;;;;;;1.23;0.63;;;7.40;99.90;;;;;;5073626;28;20166;-45
2023/01/15 01:10:43;;;;;;;2.28;1.17;;;7.40;99.90;;;;;;5073645;28;20558;-45
2023/01/15 01:13:09;;;;;;;0.73;0.65;;;7.40;99.90;;;;;;5073287;28;20206;-45
2023/01/15 01:15:35;;;;;;;0.63;0.43;;;7.50;99.90;;;;;;5073382;28;20194;-45
2023/01/15 01:18:02;;;;;;;1.40;0.75;;;7.50;99.90;;;;;;5073009;28;20169;-45
2023/01/15 01:20:28;;;;;;;4.13;0.77;;;7.50;99.90;;;;;;5073181;28;20162;-45
2023/01/15 01:22:53;;;;;;;1.95;0.45;;;7.50;99.90;;;;;;5073452;28;20170;-45
2023/01/15 01:25:19;;;;;;;2.72;0.70;;;7.50;99.90;;;;;;5073049;28;20166;-45
2023/01/15 01:27:46;;;;;;;1.40;0.55;;;7.40;99.90;;;;;;5073312;28;20162;-45
2023/01/15 01:30:13;;;;;;;2.15;0.75;;;7.50;99.90;;;;;;5072996;28;20174;-45
2023/01/15 01:32:39;;;;;;;1.42;0.70;;;7.40;99.90;;;;;;5070765;28;20764;-45
2023/01/15 01:35:05;;;;;;;2.13;0.80;;;7.30;99.90;;;;;;5073256;28;20253;-45
2023/01/15 01:37:30;;;;;;;0.90;0.43;;;7.40;99.90;;;;;;5072934;28;20206;-45
2023/01/15 01:39:56;;;;;;;1.02;0.95;;;7.30;99.90;;;;;;5072672;28;20194;-45
2023/01/15 01:42:22;;;;;;;4.32;1.20;;;7.30;99.90;;;;;;5072718;28;20534;-45
2023/01/15 01:44:50;;;;;;;3.00;0.60;;;7.40;99.90;;;;;;5071779;28;20615;-45
2023/01/15 01:47:21;;;;;;;3.70;0.80;;;7.30;99.90;;;;;;5072732;28;20253;-45
2023/01/15 01:49:50;;;;;;;5.80;0.98;;;7.30;99.90;;;;;;5072825;28;20504;-45
2023/01/15 01:52:27;;;;;;;3.42;1.15;;;7.30;99.90;;;;;;5072449;28;20244;-45
2023/01/15 01:54:54;;;;;;;2.75;0.80;;;7.40;99.90;;;;;;5072653;28;20249;-45
2023/01/15 01:57:21;;;;;;;9.57;0.90;;;7.40;99.90;;;;;;5072332;28;20525;-45
2023/01/15 01:59:48;;;;;;;2.40;0.85;;;7.40;99.90;;;;;;5072674;28;20202;-45
2023/01/15 02:02:15;;;;;;;3.17;0.93;;;7.40;99.90;;;;;;5070907;28;20190;-45
2023/01/15 02:04:42;;;;;;;2.65;0.70;;;7.40;99.90;;;;;;5071271;28;20522;-45
2023/01/15 02:07:07;;;;;;;2.50;1.10;;;7.40;99.90;;;;;;5072200;28;20173;-45
2023/01/15 02:09:33;;;;;;;0.80;0.45;;;7.40;99.90;;;;;;5072313;28;20170;-45
2023/01/15 02:12:29;;;;;;;2.53;0.95;;;7.30;99.90;;;;;;5072114;28;20201;-45
2023/01/15 02:15:02;;;;;;;2.70;1.00;;;7.30;99.90;;;;;;5071200;28;20553;-45
2023/01/15 02:17:52;;;;;;;2.10;0.70;;;7.30;99.90;;;;;;5072180;28;20166;-45
2023/01/15 02:20:29;;;;;;;2.75;1.40;;;7.30;99.90;;;;;;5072309;28;20177;-45
2023/01/15 02:23:19;;;;;;;1.88;0.90;;;7.30;99.90;;;;;;5072344;28;20184;-45
2023/01/15 02:26:01;;;;;;;2.10;0.73;;;7.30;99.90;;;;;;5071911;28;20170;-45
2023/01/15 02:28:30;;;;;;;2.53;0.85;;;7.30;99.90;;;;;;5071976;28;20201;-45
2023/01/15 02:31:04;;;;;;;1.75;0.70;;;7.40;99.90;;;;;;5072197;28;20628;-45
2023/01/15 02:33:38;;;;;;;1.08;0.45;;;7.30;99.90;;;;;;5071903;28;20206;-45
2023/01/15 02:36:07;;;;;;;0.25;0.25;;;7.30;99.90;;;;;;5072298;28;20207;-45
2023/01/15 02:38:37;;;;;;;1.15;0.43;;;7.30;99.90;;;;;;5072163;28;20178;-45
2023/01/15 02:41:06;;;;;;;0.82;0.60;;;7.30;99.90;;;;;;5072194;28;20253;-45
2023/01/15 02:43:36;;;;;;;0.68;0.52;;;7.30;99.90;;;;;;5071992;28;20538;-45
2023/01/15 02:46:04;;;;;;;2.75;0.50;;;7.20;99.90;;;;;;5072108;28;20166;-45
2023/01/15 02:48:33;;;;;;;1.58;0.50;;;7.20;99.90;;;;;;5071686;28;20174;-45
2023/01/15 02:51:10;;;;;;;2.08;0.60;;;7.30;99.90;;;;;;5071771;28;20166;-45
2023/01/15 02:53:40;;;;;;;3.63;0.82;;;7.20;99.90;;;;;;5071628;28;20657;-45
2023/01/15 02:56:28;;;;;;;2.85;0.47;;;7.20;99.90;;;;;;5071535;28;20174;-45
2023/01/15 02:58:59;;;;;;;0.38;0.38;;;7.20;99.90;;;;;;5071708;28;20200;-45
2023/01/15 03:01:37;;;;;;;0.90;0.80;;;7.20;99.90;;;;;;5071610;28;20172;-45
2023/01/15 03:04:14;;;;;;;0.63;0.43;;;7.20;99.90;;;;;;5071866;28;20258;-45
2023/01/15 03:06:48;;;;;;;1.30;0.70;;;7.20;99.90;;;;;;5071541;28;20161;-45
2023/01/15 03:09:14;;;;;;;6.55;1.58;;;7.20;99.90;;;;;;5071545;28;20162;-45
2023/01/15 03:11:53;;;;;;;2.28;0.60;;;7.30;99.90;;;;;;5071698;28;20227;-45
2023/01/15 03:14:55;;;;;;;3.70;1.02;;;7.20;99.90;;;;;;5071461;28;20197;-45
2023/01/15 03:17:29;;;;;;;2.40;0.75;;;7.30;99.90;;;;;;5071628;28;20162;-45
2023/01/15 03:20:10;;;;;;;0.95;0.45;;;7.30;99.90;;;;;;5071054;28;20161;-45
2023/01/15 03:22:40;;;;;;;3.80;1.00;;;7.20;99.90;;;;;;5071399;28;20195;-45
2023/01/15 03:25:10;;;;;;;4.70;0.73;;;7.20;99.90;;;;;;5071681;28;20178;-45
2023/01/15 03:27:36;;;;;;;2.60;0.60;;;7.20;99.90;;;;;;5071318;28;20245;-45
2023/01/15 03:30:07;;;;;;;6.80;0.77;;;7.20;99.90;;;;;;5071670;28;20261;-45
2023/01/15 03:32:33;;;;;;;2.28;0.80;;;7.20;99.90;;;;;;5071320;28;20201;-45
2023/01/15 03:34:59;;;;;;;3.60;0.93;;;7.20;99.90;;;;;;5069994;28;20215;-45
2023/01/15 03:37:26;;;;;;;1.95;0.65;;;7.20;99.90;;;;;;5071507;28;20524;-45
2023/01/15 03:39:53;;;;;;;3.33;0.80;;;7.20;99.90;;;;;;5071381;28;20177;-45
2023/01/15 03:42:40;;;;;;;7.47;0.80;;;7.20;99.90;;;;;;5071249;28;20170;-45
2023/01/15 03:45:17;;;;;;;1.42;0.63;;;7.20;99.90;;;;;;5070948;28;20166;-45
2023/01/15 03:48:01;;;;;;;1.23;0.75;;;7.20;99.90;;;;;;5071196;28;20173;-45
2023/01/15 03:50:30;;;;;;;3.22;1.17;;;7.20;99.90;;;;;;5071347;28;20174;-45
2023/01/15 03:53:09;;;;;;;2.90;1.00;;;7.20;99.90;;;;;;5071014;28;20198;-45
2023/01/15 03:55:48;;;;;;;1.42;0.73;;;7.20;99.90;;;;;;5072216;28;20192;-45
2023/01/15 03:58:36;;;;;;;6.43;1.25;;;7.20;99.90;;;;;;5074607;28;20170;-45
2023/01/15 04:01:04;;;;;;;2.35;0.60;;;7.20;99.90;;;;;;5073714;28;20625;-45
2023/01/15 04:03:32;;;;;;;4.88;0.98;;;7.20;99.90;;;;;;5074114;28;20213;-45
2023/01/15 04:06:00;;;;;;;4.15;1.25;;;7.20;99.90;;;;;;5074629;28;20162;-45
2023/01/15 04:08:30;;;;;;;3.58;1.17;;;7.10;99.90;;;;;;5074884;28;20190;-46
2023/01/15 04:10:59;;;;;;;5.90;0.80;;;7.10;99.90;;;;;;5074808;28;20676;-46
2023/01/15 04:13:26;;;;;;;4.47;0.93;;;7.10;99.90;;;;;;5074404;28;20789;-46
2023/01/15 04:15:52;;;;;;;2.70;1.00;;;7.10;99.90;;;;;;5074388;28;20166;-46
2023/01/15 04:18:17;;;;;;;1.92;0.65;;;7.10;99.90;;;;;;5074354;28;20181;-47
2023/01/15 04:20:44;;;;;;;7.90;2.38;;;7.10;99.90;;;;;;5074302;28;20250;-46
2023/01/15 04:23:10;;;;;;;5.00;1.08;;;7.10;99.90;;;;;;5074325;28;20174;-46
2023/01/15 04:25:36;;;;;;;2.33;0.90;;;7.10;99.90;;;;;;5074207;28;20163;-45
2023/01/15 04:28:01;;;;;;;4.50;1.30;;;7.10;99.90;;;;;;5073919;28;20181;-46
2023/01/15 04:30:27;;;;;;;6.80;1.20;;;7.10;99.90;;;;;;5074143;28;20201;-46
2023/01/15 04:32:52;;;;;;;2.00;1.00;;;7.10;99.90;;;;;;5073941;28;20649;-46
2023/01/15 04:35:19;;;;;;;2.92;1.60;;;7.00;99.90;;;;;;5073625;28;20166;-45
2023/01/15 04:37:45;;;;;;;6.97;1.30;;;7.10;99.90;;;;;;5073985;28;20641;-45
2023/01/15 04:45:41;;;;;;;4.03;0.90;;;7.00;99.90;;;;;;5073768;28;20177;-45
2023/01/15 04:48:07;;;;;;;2.88;0.88;;;7.00;99.90;;;;;;5073643;28;20572;-45
2023/01/15 04:50:32;;;;;;;4.80;1.10;;;7.00;99.90;;;;;;5074385;28;20162;-45
2023/01/15 04:52:58;;;;;;;2.65;1.30;;;7.00;99.90;;;;;;5073701;28;20759;-46
2023/01/15 04:55:23;;;;;;;7.82;1.48;;;7.00;99.90;;;;;;5073943;28;20170;-45
2023/01/15 04:57:49;;;;;;;3.85;1.20;;;7.00;99.90;;;;;;5073550;28;20177;-45
2023/01/15 05:00:15;;;;;;;5.10;1.15;;;7.00;99.90;;;;;;5073514;28;20178;-45
2023/01/15 05:02:41;;;;;;;4.60;1.15;;;7.00;99.90;;;;;;5073572;28;20217;-45
2023/01/15 05:05:07;;;;;;;2.22;0.73;;;7.00;99.90;;;;;;5072394;28;20185;-45
2023/01/15 05:07:32;;;;;;;1.70;0.85;;;7.00;99.90;;;;;;5072502;28;20166;-45
2023/01/15 05:09:58;;;;;;;3.03;0.40;;;7.00;99.90;;;;;;5073171;28;20195;-45
2023/01/15 05:12:23;;;;;;;3.08;0.82;;;7.00;99.90;;;;;;5073279;28;20289;-45
2023/01/15 05:14:49;;;;;;;2.47;1.48;;;7.00;99.90;;;;;;5073317;28;20209;-45
2023/01/15 05:17:14;;;;;;;0.70;0.55;;;7.00;99.90;;;;;;5073063;28;20181;-45
2023/01/15 05:19:40;;;;;;;7.55;1.20;;;7.00;99.90;;;;;;5072248;28;20162;-45
2023/01/15 05:22:05;;;;;;;7.18;1.17;;;7.00;99.90;;;;;;5073471;28;20231;-45
2023/01/15 05:24:31;;;;;;;4.20;0.63;;;7.00;99.90;;;;;;5073702;28;20178;-45
2023/01/15 05:26:57;;;;;;;2.65;0.90;;;7.00;99.90;;;;;;5072998;28;20173;-45
2023/01/15 05:29:22;;;;;;;2.25;0.80;;;7.00;99.90;;;;;;5073269;28;20185;-45
2023/01/15 05:31:48;;;;;;;6.05;1.10;;;7.00;99.90;;;;;;5073158;28;20613;-45
2023/01/15 05:34:14;;;;;;;1.98;0.47;;;7.00;99.90;;;;;;5073178;28;20174;-45
2023/01/15 05:36:40;;;;;;;6.53;1.42;;;6.90;99.90;;;;;;5072807;28;20622;-45
2023/01/15 05:39:07;;;;;;;2.83;0.70;;;7.00;99.90;;;;;;5072784;28;20268;-45
2023/01/15 05:41:51;;;;;;;4.20;1.13;;;7.00;99.90;;;;;;5072996;28;20174;-45
2023/01/15 05:44:25;;;;;;;5.28;1.58;;;6.90;99.90;;;;;;5072702;28;20169;-45
2023/01/15 05:46:54;;;;;;;2.25;0.70;;;7.00;99.90;;;;;;5072663;28;20656;-45
2023/01/15 05:49:22;;;;;;;1.60;0.88;;;7.00;99.90;;;;;;5072656;28;20173;-45
2023/01/15 05:51:48;;;;;;;1.75;0.68;;;7.00;99.90;;;;;;5072490;28;20625;-45
2023/01/15 05:54:20;;;;;;;3.55;0.70;;;7.00;99.90;;;;;;5072546;28;20219;-45
2023/01/15 05:56:47;;;;;;;3.50;1.00;;;7.00;99.90;;;;;;5072414;28;20625;-45
2023/01/15 05:59:14;;;;;;;5.38;0.98;;;7.00;99.90;;;;;;5072554;28;20556;-45
2023/01/15 06:01:40;;;;;;;8.60;1.60;;;7.00;99.90;;;;;;5072457;28;20193;-47
2023/01/15 06:04:06;;;;;;;1.50;0.77;;;7.00;99.90;;;;;;5072299;28;20249;-47
2023/01/15 06:06:33;;;;;;;4.07;1.60;;;6.90;99.90;;;;;;5073041;28;20274;-46
2023/01/15 06:08:59;;;;;;;1.88;0.95;;;6.90;99.90;;;;;;5072358;28;20162;-46
2023/01/15 06:11:24;;;;;;;4.65;1.10;;;6.90;99.90;;;;;;5072502;28;20568;-46
2023/01/15 06:13:50;;;;;;;1.20;0.82;;;6.90;99.90;;;;;;5072134;28;20198;-46
2023/01/15 06:16:17;;;;;;;4.55;1.35;;;6.90;99.90;;;;;;5072358;28;20195;-47
2023/01/15 06:18:43;;;;;;;2.22;0.98;;;6.90;99.90;;;;;;5071866;28;20169;-45
2023/01/15 06:21:11;;;;;;;6.03;1.70;;;6.90;99.90;;;;;;5072117;28;20257;-45
2023/01/15 06:23:38;;;;;;;6.28;1.35;;;6.90;99.90;;;;;;5072222;28;20178;-45
2023/01/15 06:26:06;;;;;;;6.22;1.13;;;6.90;99.90;;;;;;5072381;28;20166;-45
2023/01/15 06:28:34;;;;;;;4.63;1.13;;;6.80;99.90;;;;;;5072573;28;20174;-45
2023/01/15 06:30:59;;;;;;;9.07;1.95;;;6.90;99.90;;;;;;5071907;28;20219;-45
2023/01/15 06:33:25;;;;;;;5.18;1.10;;;6.80;99.90;;;;;;5071803;28;20209;-45
2023/01/15 06:35:51;;;;;;;1.98;0.95;;;6.80;99.90;;;;;;5071751;28;20178;-45
2023/01/15 06:38:17;;;;;;;3.15;1.45;;;6.80;99.90;;;;;;5071505;28;20170;-45
2023/01/15 06:40:42;;;;;;;2.92;0.95;;;6.80;99.90;;;;;;5071781;28;20169;-45
2023/01/15 06:48:40;;;;;;;4.72;1.52;;;6.80;99.90;;;;;;5072073;28;20312;-45
2023/01/15 06:51:05;;;;;;;0.65;0.55;;;6.80;99.90;;;;;;5071729;28;20610;-45
2023/01/15 06:53:31;;;;;;;3.22;1.27;;;6.80;99.90;;;;;;5072001;28;20323;-45
2023/01/15 06:55:56;;;;;;;1.88;0.82;;;6.80;99.90;;;;;;5071770;28;20239;-45
2023/01/15 06:58:22;;;;;;;4.78;1.05;;;6.80;99.90;;;;;;5071696;28;20268;-45
2023/01/15 07:00:54;;;;;;;3.90;0.63;;;6.80;99.90;;;;;;5071923;28;20219;-45
2023/01/15 07:03:21;;;;;;;3.25;1.00;;;6.80;99.90;;;;;;5071404;28;20287;-45
2023/01/15 07:05:46;;;;;;;4.43;0.93;;;6.80;99.90;;;;;;5071551;28;20174;-45
2023/01/15 07:08:12;;;;;;;3.80;0.55;;;6.80;99.90;;;;;;5071566;28;20170;-45
2023/01/15 07:10:37;;;;;;;2.40;0.90;;;6.70;99.90;;;;;;5071535;28;20180;-46
2023/01/15 07:13:03;;;;;;;2.22;0.98;;;6.80;99.90;;;;;;5071924;28;20568;-46
2023/01/15 07:15:30;;;;;;;12.38;1.15;;;6.80;99.90;;;;;;5071552;28;20162;-46
2023/01/15 07:17:56;;;;;;;3.08;0.65;;;6.70;99.90;;;;;;5071773;28;20176;-46
2023/01/15 07:20:22;;;;;;;5.90;1.13;;;6.70;99.90;;;;;;5071380;28;20169;-46
2023/01/15 07:22:49;;;;;;;2.08;1.08;;;6.70;99.90;;;;;;5071492;28;20167;-45
2023/01/15 07:25:14;;;;;;;1.90;0.57;;;6.70;99.90;;;;;;5071663;28;20261;-45
2023/01/15 07:27:40;;;;;;;4.90;1.20;;;6.80;99.90;;;;;;5070078;28;20634;-45
2023/01/15 07:30:06;;;;;;;3.67;0.90;;;6.80;99.90;;;;;;5071052;28;20214;-45
2023/01/15 07:32:31;;;;;;;3.05;0.75;;;6.70;99.90;;;;;;5075362;28;20206;-45
2023/01/15 07:34:57;;;;;;;7.00;1.75;;;6.70;99.90;;;;;;5075014;28;20528;-45
2023/01/15 07:37:22;;;;;;;2.65;0.88;;;6.70;99.90;;;;;;5075219;28;20166;-46
2023/01/15 07:39:48;;;;;;;4.13;1.05;;;6.70;99.90;;;;;;5075124;28;20235;-46
2023/01/15 07:50:26;;;;;;;3.22;1.05;;;6.70;99.90;;;;;;5074875;28;20181;-45
2023/01/15 07:52:51;;;;;;;4.50;0.95;;;6.60;99.90;;;;;;5074816;28;20201;-45
2023/01/15 07:55:17;;;;;;;1.08;0.95;;;6.70;99.90;;;;;;5074604;28;20173;-45
2023/01/15 07:57:43;;;;;;;4.18;0.75;;;6.70;99.90;;;;;;5074775;28;20170;-45
2023/01/15 08:00:12;;;;;;;3.47;0.70;;;6.70;99.90;;;;;;5074765;28;20170;-45
2023/01/15 08:02:38;;;;;;;2.03;0.77;;;6.70;99.90;;;;;;5074571;28;20656;-45
2023/01/15 08:05:04;;;;;;;0.65;0.60;;;6.70;99.90;;;;;;5075179;28;20174;-45
2023/01/15 08:07:34;;;;;;;1.20;0.45;;;6.60;99.90;;;;;;5075062;28;20170;-45
2023/01/15 08:10:00;;;;;;;0.50;0.50;;;6.60;99.90;;;;;;5075043;28;20260;-45
2023/01/15 08:15:13;;;;;;;3.20;0.75;;;6.60;99.90;;;;;;5074612;28;20683;-45
2023/01/15 08:17:41;;;;;;;3.17;0.77;;;6.50;99.90;;;;;;5074396;28;20657;-45
2023/01/15 08:20:11;;;;;;;2.17;0.35;;;6.50;99.90;;;;;;5074607;28;20174;-45
2023/01/15 08:22:37;;;;;;;0.90;0.45;;;6.40;99.90;;;;;;5074319;28;20228;-45
2023/01/15 08:25:04;;;;;;;3.65;0.85;;;6.40;99.90;;;;;;5074351;28;20538;-45
2023/01/15 08:27:29;;;;;;;1.15;0.60;;;6.40;99.90;;;;;;5074366;28;20200;-45
2023/01/15 08:29:55;;;;;;;0.57;0.57;;;6.30;99.90;;;;;;5074219;28;20588;-45
2023/01/15 08:32:22;;;;;;;0.57;0.30;;;6.30;99.90;;;;;;5074087;28;20688;-45
2023/01/15 08:34:48;;;;;;;0.40;0.30;;;6.20;99.90;;;;;;5074150;28;20193;-45
2023/01/15 08:37:13;;;;;;;0.15;0.10;;;6.20;99.90;;;;;;5074005;28;20208;-45
2023/01/15 08:39:39;;;;;;;1.30;0.52;;;6.10;99.90;;;;;;5073924;28;20523;-45
2023/01/15 08:42:05;;;;;;;3.58;0.68;;;6.10;99.90;;;;;;5073687;28;20212;-45
2023/01/15 08:44:30;;;;;;;1.08;0.73;;;6.10;99.90;;;;;;5074194;28;20173;-45
2023/01/15 08:46:56;;;;;;;0.85;0.57;;;6.10;99.90;;;;;;5073361;28;20763;-45
2023/01/15 08:49:21;;;;;;;0.43;0.43;;;6.10;99.90;;;;;;5073578;28;20166;-45
2023/01/15 08:51:50;;;;;;;3.22;1.15;;;6.10;99.90;;;;;;5073734;28;20177;-45
2023/01/15 08:54:21;;;;;;;6.70;0.80;;;6.20;99.90;;;;;;5072258;28;20202;-45
2023/01/15 08:56:48;;;;;;;1.35;0.63;;;6.10;99.90;;;;;;5073722;28;20209;-45
2023/01/15 08:59:14;;;;;;;3.50;0.82;;;6.20;99.90;;;;;;5073629;28;20182;-45
2023/01/15 09:01:40;;;;;;;4.70;1.08;;;6.10;99.90;;;;;;5073086;28;20535;-45
2023/01/15 09:04:06;;;;;;;1.92;1.02;;;6.20;99.90;;;;;;5073100;28;20217;-45
2023/01/15 09:06:32;;;;;;;1.42;0.65;;;6.20;99.90;;;;;;5073631;28;20520;-45
2023/01/15 09:08:59;;;;;;;2.17;1.00;;;6.20;99.90;;;;;;5072967;28;20304;-45
2023/01/15 09:11:24;;;;;;;6.90;1.27;;;6.20;99.90;;;;;;5073229;28;20173;-45
2023/01/15 09:13:50;;;;;;;2.67;0.93;;;6.20;99.90;;;;;;5073048;28;20206;-45
2023/01/15 09:16:17;;;;;;;1.95;0.95;;;6.30;99.90;;;;;;5072974;28;20166;-45
2023/01/15 09:18:42;;;;;;;4.25;1.30;;;6.30;99.90;;;;;;5073059;28;20176;-45
2023/01/15 09:21:08;;;;;;;2.53;1.02;;;6.30;99.90;;;;;;5072915;28;20518;-45
2023/01/15 09:23:34;;;;;;;6.13;1.50;;;6.30;99.90;;;;;;5073142;28;20208;-45
2023/01/15 09:26:03;;;;;;;5.63;1.38;;;6.30;99.90;;;;;;5072747;28;20223;-45
2023/01/15 09:28:29;;;;;;;2.67;1.30;;;6.30;99.90;;;;;;5072712;28;20653;-45
2023/01/15 09:30:55;;;;;;;4.82;1.40;;;6.30;99.90;;;;;;5072142;28;20178;-45
2023/01/15 09:33:21;;;;;;;2.95;0.95;;;6.30;99.90;;;;;;5072661;28;20198;-45
2023/01/15 09:35:47;;;;;;;4.85;0.80;;;6.60;99.90;;;;;;5072660;28;20158;-45
2023/01/15 09:38:17;;;;;;;3.50;1.00;;;6.60;99.90;;;;;;5072416;28;20170;-45
2023/01/15 09:40:56;;;;;;;1.77;0.85;;;6.70;99.90;;;;;;5072595;28;20174;-45
2023/01/15 09:43:38;;;;;;;4.57;1.30;;;6.90;99.90;;;;;;5072671;28;20173;-45
2023/01/15 09:46:19;;;;;;;6.07;1.23;;;6.80;99.90;;;;;;5072332;28;20536;-45
2023/01/15 09:48:53;;;;;;;5.57;1.30;;;6.80;99.90;;;;;;5072461;28;20169;-45
2023/01/15 09:51:48;;;;;;;4.00;1.77;;;6.80;99.90;;;;;;5072429;28;20170;-45
2023/01/15 09:54:20;;;;;;;6.32;1.35;;;6.90;99.90;;;;;;5034360;28;20197;-45
2023/01/15 09:56:46;;;;;;;4.57;1.05;;;7.00;99.90;;;;;;5072135;28;20181;-45
2023/01/15 09:59:40;;;;;;;4.95;1.33;;;6.90;99.90;;;;;;5071699;28;20257;-45
2023/01/15 10:02:30;;;;;;;3.33;1.20;;;7.10;99.90;;;;;;5070504;28;20177;-45
2023/01/15 10:05:22;;;;;;;4.18;1.30;;;7.10;99.90;;;;;;5072330;28;20209;-45
2023/01/15 10:08:08;;;;;;;4.95;1.63;;;7.10;99.90;;;;;;5066687;28;20636;-45
2023/01/15 10:10:45;;;;;;;3.55;1.27;;;7.20;99.90;;;;;;5072324;28;20200;-45
2023/01/15 10:13:44;;;;;;;3.15;1.73;;;7.30;99.90;;;;;;5071387;28;20205;-45
2023/01/15 10:16:15;;;;;;;1.48;0.80;;;7.40;99.90;;;;;;5072159;28;20158;-45
2023/01/15 10:18:42;;;;;;;4.30;1.27;;;7.60;99.90;;;;;;5071784;28;20166;-45
2023/01/15 10:21:43;;;;;;;2.63;1.20;;;7.70;99.90;;;;;;5071596;28;20176;-45
2023/01/15 10:24:18;;;;;;;6.82;1.40;;;7.60;99.90;;;;;;5072306;28;20226;-45
2023/01/15 10:26:56;;;;;;;2.70;1.00;;;7.60;99.90;;;;;;5070777;28;20565;-45
2023/01/15 10:29:40;;;;;;;5.45;2.08;;;7.60;99.90;;;;;;5071536;28;20166;-46
2023/01/15 10:32:17;;;;;;;3.30;0.88;;;7.70;99.90;;;;;;5071817;28;20217;-45
2023/01/15 10:34:59;;;;;;;4.50;1.40;;;7.80;99.90;;;;;;5072223;28;20260;-46
2023/01/15 10:37:44;;;;;;;6.68;1.42;;;7.90;99.90;;;;;;5071614;28;20166;-45
2023/01/15 10:40:28;;;;;;;6.85;1.33;;;7.80;99.90;;;;;;5072038;28;20166;-46
2023/01/15 10:43:10;;;;;;;6.22;1.30;;;7.80;99.90;;;;;;5071458;28;20164;-46
2023/01/15 10:45:45;;;;;;;2.50;0.88;;;7.80;99.90;;;;;;5071608;28;20565;-45
2023/01/15 10:48:21;;;;;;;13.07;5.25;;;7.70;99.90;;;;;;5071570;28;20200;-45
2023/01/15 10:50:48;;;;;;;3.83;1.25;;;7.80;99.90;;;;;;5071687;28;20173;-45
2023/01/15 10:53:35;;;;;;;5.03;1.65;;;7.70;99.90;;;;;;5071628;28;20292;-45
2023/01/15 10:56:12;;;;;;;4.53;2.28;;;7.80;99.90;;;;;;5072065;28;20198;-45
2023/01/15 10:58:53;;;;;;;6.43;1.35;;;7.80;99.90;;;;;;5071699;28;20257;-45
2023/01/15 11:01:23;;;;;;;3.67;0.88;;;7.80;99.90;;;;;;5071688;28;20195;-45
2023/01/15 11:03:49;;;;;;;4.03;1.00;;;7.80;99.90;;;;;;5071435;28;20210;-45
2023/01/15 11:06:17;;;;;;;3.63;1.35;;;7.80;99.90;;;;;;5074805;28;20527;-45
2023/01/15 11:08:47;;;;;;;2.55;1.10;;;7.60;99.90;;;;;;5075700;28;20165;-45
2023/01/15 11:20:00;;;;;;;2.15;1.10;;;7.60;99.90;;;;;;5066091;28;20215;-45
2023/01/15 11:22:28;;;;;;;4.93;1.02;;;7.70;99.90;;;;;;5064403;28;20627;-47
2023/01/15 11:24:57;;;;;;;1.98;0.90;;;7.60;99.90;;;;;;5069548;28;20201;-46
2023/01/15 11:27:32;;;;;;;2.33;0.82;;;7.70;99.90;;;;;;5075429;28;20181;-46
2023/01/15 11:30:00;;;;;;;4.90;1.02;;;7.70;99.90;;;;;;5074929;28;20240;-45
2023/01/15 11:32:32;;;;;;;5.75;1.15;;;7.70;99.90;;;;;;5074780;28;20286;-45
2023/01/15 11:35:00;;;;;;;1.65;0.70;;;7.60;99.90;;;;;;5073669;28;20569;-46
2023/01/15 11:37:26;;;;;;;5.80;0.82;;;7.50;99.90;;;;;;5073301;28;20796;-47
2023/01/15 11:40:08;;;;;;;4.53;1.20;;;7.50;99.90;;;;;;5073962;28;20166;-46
2023/01/15 11:51:08;;;;;;;4.32;1.17;;;7.50;99.90;;;;;;5073607;28;20260;-46
2023/01/15 11:53:54;;;;;;;5.43;1.40;;;7.40;99.90;;;;;;5073043;28;20693;-46
2023/01/15 11:56:24;;;;;;;2.92;0.50;;;7.50;99.90;;;;;;5072808;28;20170;-47
2023/01/15 11:58:56;;;;;;;3.33;1.05;;;7.40;99.90;;;;;;5071602;28;20718;-46
2023/01/15 12:01:32;;;;;;;3.55;0.98;;;7.40;99.90;;;;;;5072773;28;20166;-47
2023/01/15 12:03:59;;;;;;;7.18;1.10;;;7.40;99.90;;;;;;5073587;28;20220;-46
2023/01/15 12:06:26;;;;;;;2.53;1.15;;;7.50;99.90;;;;;;5074585;28;20169;-47
2023/01/15 12:09:07;;;;;;;2.85;1.23;;;7.50;99.90;;;;;;5074607;28;20211;-47
2023/01/15 12:12:07;;;;;;;4.18;1.27;;;7.50;99.90;;;;;;5074804;28;20170;-47
2023/01/15 12:14:39;;;;;;;1.15;0.73;;;7.70;99.90;;;;;;5074909;28;20673;-46
2023/01/15 12:17:23;;;;;;;1.08;0.63;;;7.70;99.90;;;;;;5074156;28;20166;-46
2023/01/15 12:20:19;;;;;;;1.55;0.80;;;7.70;99.90;;;;;;5074448;28;20257;-47
2023/01/15 12:23:00;;;;;;;3.35;1.35;;;7.70;99.90;;;;;;5074288;28;20166;-46
2023/01/15 12:26:01;;;;;;;5.00;1.10;;;7.70;99.90;;;;;;5057241;28;20166;-46
2023/01/15 12:28:38;;;;;;;1.83;0.65;;;7.70;99.90;;;;;;5012478;28;20171;-46
2023/01/15 12:31:17;;;;;;;2.03;0.70;;;7.80;99.90;;;;;;5066538;28;20173;-46
2023/01/15 12:34:22;;;;;;;1.65;0.82;;;7.80;99.90;;;;;;5074284;28;20215;-46
2023/01/15 12:37:04;;;;;;;5.60;1.25;;;7.70;99.90;;;;;;5064902;28;20192;-47
2023/01/15 12:39:48;;;;;;;3.17;0.77;;;7.60;99.90;;;;;;5074047;28;20174;-46
2023/01/15 12:45:27;;;;;;;3.33;0.85;;;7.70;99.90;;;;;;5074411;28;20185;-46
2023/01/15 12:47:59;;;;;;;3.38;1.00;;;7.70;99.90;;;;;;5073306;28;20182;-45
2023/01/15 12:50:45;;;;;;;0.68;0.57;;;7.70;99.90;;;;;;5074219;28;20170;-45
2023/01/15 12:53:38;;;;;;;4.93;0.90;;;7.70;99.90;;;;;;5073344;28;20247;-45
2023/01/15 12:56:22;;;;;;;2.33;0.93;;;7.80;99.90;;;;;;5073892;28;20241;-45
2023/01/15 12:59:32;;;;;;;4.95;0.93;;;7.90;99.90;;;;;;5073296;28;20177;-45
2023/01/15 13:02:24;;;;;;;1.95;1.27;;;7.80;99.90;;;;;;5073404;28;20245;-45
2023/01/15 13:04:53;;;;;;;1.00;0.68;;;7.80;99.90;;;;;;5073538;28;20206;-45
2023/01/15 13:07:51;;;;;;;3.13;1.00;;;7.70;99.90;;;;;;5073195;28;20247;-45
2023/01/15 13:10:20;;;;;;;3.13;1.00;;;7.80;99.90;;;;;;5039094;28;20205;-45
2023/01/15 13:12:46;;;;;;;2.40;0.93;;;7.80;99.90;;;;;;5072690;28;20203;-45
2023/01/15 13:15:13;;;;;;;4.10;1.17;;;7.70;99.90;;;;;;5073016;28;20169;-45
2023/01/15 13:18:01;;;;;;;2.25;1.00;;;7.80;99.90;;;;;;5072858;28;20165;-45
2023/01/15 13:20:27;;;;;;;4.57;2.05;;;7.90;99.90;;;;;;5072903;28;20172;-45
2023/01/15 13:23:38;;;;;;;5.68;3.78;;;8.00;99.90;;;;;;5073078;28;20166;-45
2023/01/15 13:26:04;;;;;;;6.82;1.05;;;7.90;99.90;;;;;;5039567;28;20693;-45
2023/01/15 13:28:46;;;;;;;3.00;1.17;;;7.90;99.90;;;;;;5071965;28;20236;-45
2023/01/15 13:31:56;;;;;;;1.48;1.10;;;7.90;99.90;;;;;;5072975;28;20161;-45
2023/01/15 13:34:44;;;;;;;7.53;3.15;;;8.00;99.90;;;;;;5044461;28;20201;-46
2023/01/15 13:37:25;;;;;;;2.10;0.98;;;8.00;99.90;;;;;;5072863;28;20165;-45
2023/01/15 13:40:18;;;;;;;2.90;0.73;;;8.00;99.90;;;;;;5072852;28;20162;-45
2023/01/15 13:42:46;;;;;;;3.60;1.30;;;8.00;99.90;;;;;;5049350;28;20609;-45
2023/01/15 13:45:12;;;;;;;4.10;0.70;;;8.00;99.90;;;;;;5072698;28;20649;-45
2023/01/15 13:47:41;;;;;;;3.35;1.15;;;7.90;99.90;;;;;;5072650;28;20240;-45
2023/01/15 13:50:35;;;;;;;4.97;1.25;;;7.80;99.90;;;;;;5072587;28;20169;-45
2023/01/15 13:53:15;;;;;;;4.10;1.15;;;7.90;99.90;;;;;;5072777;28;20216;-45
2023/01/15 13:55:51;;;;;;;1.73;1.02;;;7.80;99.90;;;;;;5072400;28;20162;-45
2023/01/15 13:58:22;;;;;;;1.90;1.25;;;7.80;99.90;;;;;;5071652;28;20166;-45
2023/01/15 14:00:58;;;;;;;5.50;2.10;;;7.80;99.90;;;;;;5072497;28;20200;-45
2023/01/15 14:03:30;;;;;;;1.42;1.20;;;7.70;99.90;;;;;;5072009;28;20333;-45
2023/01/15 14:06:04;;;;;;;1.42;0.93;;;7.70;99.90;;;;;;5072417;28;20189;-45
2023/01/15 14:08:43;;;;;;;1.05;0.75;;;7.70;99.90;;;;;;5072280;28;20648;-45